createdAt,value
2017-08-28T00:00:17.958Z,928.75
2017-08-28T00:00:37.360Z,928.76
2017-08-28T00:00:57.359Z,928.75
2017-08-28T00:01:16.765Z,928.79
2017-08-28T00:01:36.766Z,928.77
2017-08-28T00:01:56.160Z,928.77
2017-08-28T00:02:15.551Z,928.78
2017-08-28T00:02:35.529Z,928.77
2017-08-28T00:02:55.504Z,928.79
2017-08-28T00:03:15.493Z,928.81
2017-08-28T00:03:34.890Z,928.82
2017-08-28T00:03:54.876Z,928.79
2017-08-28T00:04:14.278Z,928.77
2017-08-28T00:04:34.268Z,928.78
2017-08-28T00:04:54.225Z,928.79
2017-08-28T00:05:14.192Z,928.78
2017-08-28T00:05:34.143Z,928.83
2017-08-28T00:05:53.562Z,928.82
2017-08-28T00:06:12.994Z,928.83
2017-08-28T00:06:32.400Z,928.78
2017-08-28T00:06:52.410Z,928.83
2017-08-28T00:07:11.849Z,928.84
2017-08-28T00:07:31.275Z,928.83
2017-08-28T00:07:50.695Z,928.88
2017-08-28T00:08:10.130Z,928.84
2017-08-28T00:08:30.126Z,928.87
2017-08-28T00:08:49.542Z,928.88
2017-08-28T00:09:08.960Z,928.82
2017-08-28T00:09:28.367Z,928.89
2017-08-28T00:09:48.367Z,928.9
2017-08-28T00:10:08.377Z,928.94
2017-08-28T00:10:28.382Z,928.89
2017-08-28T00:10:48.367Z,928.87
2017-08-28T00:11:07.794Z,928.91
2017-08-28T00:11:27.206Z,928.92
2017-08-28T00:11:47.188Z,928.94
2017-08-28T00:12:07.159Z,928.95
2017-08-28T00:12:25.455Z,928.93
2017-08-28T00:12:45.431Z,928.92
2017-08-28T00:13:04.817Z,928.88
2017-08-28T00:13:24.781Z,928.93
2017-08-28T00:13:44.767Z,928.92
2017-08-28T00:14:04.194Z,928.93
2017-08-28T00:14:24.462Z,928.95
2017-08-28T00:14:44.893Z,928.91
2017-08-28T00:15:03.738Z,928.91
2017-08-28T00:15:23.174Z,928.9
2017-08-28T00:15:43.150Z,928.87
2017-08-28T00:16:02.580Z,928.93
2017-08-28T00:16:21.991Z,928.91
2017-08-28T00:16:41.421Z,928.92
2017-08-28T00:17:00.278Z,928.88
2017-08-28T00:17:19.134Z,928.89
2017-08-28T00:17:38.559Z,928.94
2017-08-28T00:17:57.945Z,928.92
2017-08-28T00:18:17.932Z,928.9
2017-08-28T00:18:37.912Z,928.88
2017-08-28T00:18:56.749Z,928.93
2017-08-28T00:19:16.724Z,928.9
2017-08-28T00:19:36.142Z,928.95
2017-08-28T00:19:55.553Z,928.94
2017-08-28T00:20:15.018Z,928.96
2017-08-28T00:20:34.989Z,928.95
2017-08-28T00:20:54.957Z,928.96
2017-08-28T00:21:14.360Z,928.97
2017-08-28T00:21:33.811Z,928.97
2017-08-28T00:21:53.806Z,929.02
2017-08-28T00:22:13.281Z,929
2017-08-28T00:22:33.254Z,928.98
2017-08-28T00:22:53.278Z,928.98
2017-08-28T00:23:12.694Z,929.01
2017-08-28T00:23:32.677Z,929
2017-08-28T00:23:52.661Z,928.99
2017-08-28T00:24:12.057Z,929.01
2017-08-28T00:24:31.469Z,929
2017-08-28T00:24:51.436Z,929.04
2017-08-28T00:25:10.889Z,929.02
2017-08-28T00:25:30.291Z,929.01
2017-08-28T00:25:49.700Z,929
2017-08-28T00:26:08.547Z,929.06
2017-08-28T00:26:27.974Z,929.02
2017-08-28T00:26:47.386Z,929.02
2017-08-28T00:27:07.380Z,928.98
2017-08-28T00:27:26.844Z,928.95
2017-08-28T00:27:46.232Z,929
2017-08-28T00:28:05.651Z,929.01
2017-08-28T00:28:24.497Z,928.99
2017-08-28T00:28:43.909Z,928.97
2017-08-28T00:29:03.898Z,928.96
2017-08-28T00:29:23.320Z,928.96
2017-08-28T00:29:43.312Z,928.95
2017-08-28T00:30:02.756Z,928.96
2017-08-28T00:30:22.160Z,928.97
2017-08-28T00:30:42.979Z,928.98
2017-08-28T00:31:05.045Z,928.93
2017-08-28T00:31:25.244Z,928.97
2017-08-28T00:31:45.019Z,928.96
2017-08-28T00:32:05.554Z,928.91
2017-08-28T00:32:24.441Z,928.94
2017-08-28T00:32:44.754Z,928.96
2017-08-28T00:33:05.523Z,928.92
2017-08-28T00:33:25.897Z,928.95
2017-08-28T00:33:46.113Z,928.92
2017-08-28T00:34:06.258Z,928.89
2017-08-28T00:34:26.450Z,928.91
2017-08-28T00:34:46.009Z,928.9
2017-08-28T00:35:05.987Z,928.92
2017-08-28T00:35:25.432Z,928.9
2017-08-28T00:35:45.139Z,928.91
2017-08-28T00:36:04.536Z,928.88
2017-08-28T00:36:23.379Z,928.86
2017-08-28T00:36:42.228Z,928.87
2017-08-28T00:37:01.653Z,928.86
2017-08-28T00:37:21.650Z,928.84
2017-08-28T00:37:41.594Z,928.86
2017-08-28T00:38:01.008Z,928.78
2017-08-28T00:38:21.014Z,928.84
2017-08-28T00:38:41.006Z,928.82
2017-08-28T00:39:00.959Z,928.79
2017-08-28T00:39:20.946Z,928.79
2017-08-28T00:39:40.932Z,928.84
2017-08-28T00:40:00.928Z,928.81
2017-08-28T00:40:19.803Z,928.81
2017-08-28T00:40:39.797Z,928.84
2017-08-28T00:40:59.220Z,928.83
2017-08-28T00:41:19.215Z,928.84
2017-08-28T00:41:39.189Z,928.81
2017-08-28T00:41:58.617Z,928.83
2017-08-28T00:42:18.019Z,928.83
2017-08-28T00:42:37.449Z,928.81
2017-08-28T00:42:57.426Z,928.83
2017-08-28T00:43:17.409Z,928.85
2017-08-28T00:43:36.825Z,928.86
2017-08-28T00:43:56.276Z,928.83
2017-08-28T00:44:16.268Z,928.87
2017-08-28T00:44:36.263Z,928.9
2017-08-28T00:44:55.680Z,928.85
2017-08-28T00:45:15.666Z,928.88
2017-08-28T00:45:35.672Z,928.88
2017-08-28T00:45:55.084Z,928.9
2017-08-28T00:46:15.109Z,928.91
2017-08-28T00:46:35.107Z,928.94
2017-08-28T00:46:53.951Z,928.92
2017-08-28T00:47:13.379Z,928.88
2017-08-28T00:47:32.823Z,928.92
2017-08-28T00:47:52.813Z,928.93
2017-08-28T00:48:11.653Z,928.95
2017-08-28T00:48:31.646Z,928.95
2017-08-28T00:48:51.646Z,928.95
2017-08-28T00:49:11.635Z,928.92
2017-08-28T00:49:31.066Z,928.93
2017-08-28T00:49:51.042Z,928.96
2017-08-28T00:50:10.445Z,928.98
2017-08-28T00:50:29.848Z,928.96
2017-08-28T00:50:49.254Z,928.96
2017-08-28T00:51:08.093Z,928.97
2017-08-28T00:51:27.508Z,928.97
2017-08-28T00:51:46.908Z,928.94
2017-08-28T00:52:05.749Z,928.97
2017-08-28T00:52:25.721Z,928.97
2017-08-28T00:52:45.714Z,928.97
2017-08-28T00:53:05.723Z,929.02
2017-08-28T00:53:25.713Z,929.01
2017-08-28T00:53:45.699Z,928.97
2017-08-28T00:54:05.691Z,928.94
2017-08-28T00:54:24.553Z,929
2017-08-28T00:54:44.534Z,928.97
2017-08-28T00:55:03.937Z,929
2017-08-28T00:55:23.922Z,929.03
2017-08-28T00:55:43.344Z,928.99
2017-08-28T00:56:03.337Z,929.01
2017-08-28T00:56:22.177Z,928.97
2017-08-28T00:56:42.151Z,928.98
2017-08-28T00:57:01.000Z,928.94
2017-08-28T00:57:20.407Z,929.01
2017-08-28T00:57:40.381Z,929.01
2017-08-28T00:58:00.383Z,929
2017-08-28T00:58:19.802Z,929.01
2017-08-28T00:58:39.231Z,929
2017-08-28T00:58:58.645Z,929.01
2017-08-28T00:59:17.494Z,929.01
2017-08-28T00:59:37.495Z,928.98
2017-08-28T00:59:55.788Z,929
2017-08-28T01:00:15.783Z,928.99
2017-08-28T01:00:35.752Z,928.97
2017-08-28T01:00:55.769Z,929.03
2017-08-28T01:01:14.633Z,929.06
2017-08-28T01:01:34.612Z,929.05
2017-08-28T01:01:54.587Z,929.05
2017-08-28T01:02:14.586Z,929.05
2017-08-28T01:02:34.614Z,929.08
2017-08-28T01:02:54.581Z,929.06
2017-08-28T01:03:14.565Z,929.04
2017-08-28T01:03:34.542Z,929.06
2017-08-28T01:03:53.940Z,929.03
2017-08-28T01:04:13.369Z,929.04
2017-08-28T01:04:32.772Z,929.01
2017-08-28T01:04:52.201Z,929.01
2017-08-28T01:05:11.628Z,929.05
2017-08-28T01:05:31.969Z,929
2017-08-28T01:06:00.063Z,929
2017-08-28T01:06:19.465Z,928.99
2017-08-28T01:06:39.452Z,928.97
2017-08-28T01:06:59.907Z,929.01
2017-08-28T01:07:24.397Z,928.97
2017-08-28T01:07:43.872Z,928.96
2017-08-28T01:08:02.715Z,928.99
2017-08-28T01:08:22.709Z,929
2017-08-28T01:08:42.671Z,928.96
2017-08-28T01:09:02.633Z,928.99
2017-08-28T01:09:22.050Z,928.97
2017-08-28T01:09:42.028Z,928.98
2017-08-28T01:10:01.461Z,929
2017-08-28T01:10:21.442Z,928.99
2017-08-28T01:10:41.478Z,929.02
2017-08-28T01:11:00.887Z,929
2017-08-28T01:11:20.269Z,928.99
2017-08-28T01:11:39.668Z,929.01
2017-08-28T01:11:58.501Z,928.96
2017-08-28T01:12:16.771Z,928.96
2017-08-28T01:12:36.741Z,928.97
2017-08-28T01:12:56.710Z,928.99
2017-08-28T01:13:16.708Z,929.01
2017-08-28T01:13:36.702Z,928.99
2017-08-28T01:13:56.676Z,928.97
2017-08-28T01:14:16.637Z,928.99
2017-08-28T01:14:36.634Z,929.01
2017-08-28T01:14:56.051Z,929.03
2017-08-28T01:15:14.937Z,929
2017-08-28T01:15:34.496Z,928.98
2017-08-28T01:15:54.472Z,929
2017-08-28T01:16:13.885Z,928.98
2017-08-28T01:16:33.887Z,928.95
2017-08-28T01:16:53.309Z,928.99
2017-08-28T01:17:13.453Z,929
2017-08-28T01:17:33.751Z,929.03
2017-08-28T01:17:53.203Z,929.02
2017-08-28T01:18:12.628Z,928.98
2017-08-28T01:18:32.613Z,928.99
2017-08-28T01:18:52.595Z,929
2017-08-28T01:19:10.877Z,929.02
2017-08-28T01:19:30.857Z,929.04
2017-08-28T01:19:50.287Z,929.04
2017-08-28T01:20:09.726Z,929.01
2017-08-28T01:20:29.129Z,929.01
2017-08-28T01:20:49.107Z,929.05
2017-08-28T01:21:09.078Z,929
2017-08-28T01:21:28.511Z,929.03
2017-08-28T01:21:48.474Z,928.99
2017-08-28T01:22:08.431Z,928.98
2017-08-28T01:22:27.289Z,928.95
2017-08-28T01:22:46.698Z,929
2017-08-28T01:23:06.683Z,928.99
2017-08-28T01:23:26.654Z,929
2017-08-28T01:23:46.052Z,928.99
2017-08-28T01:24:06.012Z,929
2017-08-28T01:24:25.989Z,928.94
2017-08-28T01:24:45.374Z,929.01
2017-08-28T01:25:05.414Z,928.99
2017-08-28T01:25:25.404Z,929.02
2017-08-28T01:25:45.403Z,929.05
2017-08-28T01:26:04.813Z,929.02
2017-08-28T01:26:24.777Z,929.03
2017-08-28T01:26:44.770Z,929
2017-08-28T01:27:04.186Z,929.02
2017-08-28T01:27:24.173Z,929
2017-08-28T01:27:44.166Z,928.99
2017-08-28T01:28:04.154Z,928.98
2017-08-28T01:28:24.129Z,929
2017-08-28T01:28:44.104Z,929.03
2017-08-28T01:29:03.547Z,929.02
2017-08-28T01:29:22.953Z,928.99
2017-08-28T01:29:42.951Z,929.04
2017-08-28T01:30:02.967Z,929.02
2017-08-28T01:30:21.813Z,929.01
2017-08-28T01:30:41.784Z,928.99
2017-08-28T01:31:01.783Z,928.99
2017-08-28T01:31:21.188Z,928.99
2017-08-28T01:31:41.188Z,928.97
2017-08-28T01:32:01.192Z,929
2017-08-28T01:32:20.595Z,929.01
2017-08-28T01:32:40.006Z,928.98
2017-08-28T01:32:59.994Z,928.97
2017-08-28T01:33:19.997Z,929
2017-08-28T01:33:39.983Z,928.99
2017-08-28T01:33:59.396Z,928.97
2017-08-28T01:34:19.371Z,928.98
2017-08-28T01:34:39.328Z,928.98
2017-08-28T01:34:59.300Z,928.96
2017-08-28T01:35:19.271Z,929.02
2017-08-28T01:35:39.274Z,929.01
2017-08-28T01:35:58.708Z,929.01
2017-08-28T01:36:18.110Z,929.02
2017-08-28T01:36:37.564Z,929.01
2017-08-28T01:36:57.567Z,929.01
2017-08-28T01:37:17.536Z,929
2017-08-28T01:37:37.511Z,929
2017-08-28T01:37:57.480Z,929
2017-08-28T01:38:17.458Z,928.99
2017-08-28T01:38:36.874Z,929
2017-08-28T01:38:56.311Z,929.04
2017-08-28T01:39:16.304Z,929.03
2017-08-28T01:39:36.292Z,929
2017-08-28T01:39:55.733Z,928.99
2017-08-28T01:40:15.726Z,929.04
2017-08-28T01:40:35.148Z,928.98
2017-08-28T01:40:55.129Z,929
2017-08-28T01:41:14.522Z,929
2017-08-28T01:41:33.355Z,928.99
2017-08-28T01:41:52.201Z,928.95
2017-08-28T01:42:12.154Z,928.98
2017-08-28T01:42:32.131Z,928.98
2017-08-28T01:42:51.566Z,928.96
2017-08-28T01:43:11.570Z,928.93
2017-08-28T01:43:30.986Z,928.95
2017-08-28T01:43:50.979Z,928.91
2017-08-28T01:44:10.398Z,928.96
2017-08-28T01:44:29.790Z,928.97
2017-08-28T01:44:49.235Z,928.95
2017-08-28T01:45:09.218Z,928.95
2017-08-28T01:45:29.189Z,928.91
2017-08-28T01:45:49.162Z,928.92
2017-08-28T01:46:09.139Z,928.9
2017-08-28T01:46:29.118Z,928.91
2017-08-28T01:46:48.533Z,928.91
2017-08-28T01:47:08.542Z,928.91
2017-08-28T01:47:27.415Z,928.91
2017-08-28T01:47:46.841Z,928.89
2017-08-28T01:48:06.842Z,928.89
2017-08-28T01:48:25.714Z,928.92
2017-08-28T01:48:45.877Z,928.96
2017-08-28T01:49:05.989Z,928.93
2017-08-28T01:49:25.978Z,928.89
2017-08-28T01:49:45.393Z,928.9
2017-08-28T01:50:05.366Z,928.91
2017-08-28T01:50:25.389Z,928.9
2017-08-28T01:50:44.933Z,928.93
2017-08-28T01:51:04.890Z,928.94
2017-08-28T01:51:24.874Z,928.87
2017-08-28T01:51:44.285Z,928.92
2017-08-28T01:52:04.327Z,928.93
2017-08-28T01:52:24.288Z,928.92
2017-08-28T01:52:44.265Z,928.9
2017-08-28T01:53:04.229Z,928.87
2017-08-28T01:53:24.189Z,928.87
2017-08-28T01:53:43.598Z,928.89
2017-08-28T01:54:03.593Z,928.9
2017-08-28T01:54:23.566Z,928.87
2017-08-28T01:54:42.984Z,928.88
2017-08-28T01:55:01.836Z,928.88
2017-08-28T01:55:21.247Z,928.87
2017-08-28T01:55:41.231Z,928.91
2017-08-28T01:56:01.224Z,928.9
2017-08-28T01:56:21.214Z,928.91
2017-08-28T01:56:41.192Z,928.9
2017-08-28T01:57:01.184Z,928.89
2017-08-28T01:57:20.618Z,928.88
2017-08-28T01:57:40.047Z,928.91
2017-08-28T01:57:59.450Z,928.88
2017-08-28T01:58:18.859Z,928.91
2017-08-28T01:58:38.275Z,928.95
2017-08-28T01:58:57.690Z,928.95
2017-08-28T01:59:17.681Z,928.98
2017-08-28T01:59:37.648Z,928.94
2017-08-28T01:59:57.614Z,928.95
2017-08-28T02:00:17.612Z,928.95
2017-08-28T02:00:37.762Z,929.01
2017-08-28T02:00:57.756Z,929
2017-08-28T02:01:17.715Z,928.99
2017-08-28T02:01:37.729Z,929
2017-08-28T02:01:57.703Z,928.99
2017-08-28T02:02:17.693Z,929.01
2017-08-28T02:02:37.676Z,928.98
2017-08-28T02:02:56.542Z,928.98
2017-08-28T02:03:15.956Z,928.98
2017-08-28T02:03:35.935Z,928.99
2017-08-28T02:03:54.779Z,928.97
2017-08-28T02:04:13.617Z,928.99
2017-08-28T02:04:33.649Z,928.92
2017-08-28T02:04:53.614Z,928.92
2017-08-28T02:05:13.007Z,928.89
2017-08-28T02:05:32.409Z,928.93
2017-08-28T02:05:51.247Z,928.9
2017-08-28T02:06:10.653Z,928.89
2017-08-28T02:06:30.642Z,928.9
2017-08-28T02:06:49.471Z,928.84
2017-08-28T02:07:08.329Z,928.86
2017-08-28T02:07:28.316Z,928.81
2017-08-28T02:07:47.735Z,928.82
2017-08-28T02:08:07.146Z,928.82
2017-08-28T02:08:27.125Z,928.82
2017-08-28T02:08:45.958Z,928.8
2017-08-28T02:09:05.929Z,928.79
2017-08-28T02:09:25.951Z,928.82
2017-08-28T02:09:45.938Z,928.8
2017-08-28T02:10:05.353Z,928.82
2017-08-28T02:10:24.838Z,928.81
2017-08-28T02:10:44.854Z,928.8
2017-08-28T02:11:04.274Z,928.8
2017-08-28T02:11:23.664Z,928.85
2017-08-28T02:11:43.065Z,928.84
2017-08-28T02:12:01.921Z,928.82
2017-08-28T02:12:21.888Z,928.85
2017-08-28T02:12:41.896Z,928.86
2017-08-28T02:13:00.809Z,928.85
2017-08-28T02:13:20.825Z,928.86
2017-08-28T02:13:40.247Z,928.88
2017-08-28T02:14:00.219Z,928.9
2017-08-28T02:14:20.181Z,928.88
2017-08-28T02:14:40.157Z,928.85
2017-08-28T02:14:59.545Z,928.88
2017-08-28T02:15:18.400Z,928.9
2017-08-28T02:15:38.413Z,928.87
2017-08-28T02:15:57.825Z,928.89
2017-08-28T02:16:17.824Z,928.87
2017-08-28T02:16:37.808Z,928.92
2017-08-28T02:16:57.234Z,928.9
2017-08-28T02:17:17.204Z,928.87
2017-08-28T02:17:37.183Z,928.86
2017-08-28T02:17:56.611Z,928.87
2017-08-28T02:18:16.040Z,928.86
2017-08-28T02:18:35.999Z,928.84
2017-08-28T02:18:55.964Z,928.81
2017-08-28T02:19:15.373Z,928.79
2017-08-28T02:19:35.366Z,928.81
2017-08-28T02:19:54.775Z,928.84
2017-08-28T02:20:14.170Z,928.8
2017-08-28T02:20:34.312Z,928.82
2017-08-28T02:20:53.722Z,928.8
2017-08-28T02:21:13.699Z,928.81
2017-08-28T02:21:33.103Z,928.85
2017-08-28T02:21:53.074Z,928.78
2017-08-28T02:22:11.945Z,928.81
2017-08-28T02:22:31.935Z,928.84
2017-08-28T02:22:51.893Z,928.81
2017-08-28T02:23:11.855Z,928.84
2017-08-28T02:23:31.265Z,928.86
2017-08-28T02:23:50.654Z,928.84
2017-08-28T02:24:10.664Z,928.82
2017-08-28T02:24:30.641Z,928.8
2017-08-28T02:24:50.601Z,928.82
2017-08-28T02:25:10.604Z,928.86
2017-08-28T02:25:30.593Z,928.85
2017-08-28T02:25:50.565Z,928.88
2017-08-28T02:26:08.847Z,928.87
2017-08-28T02:26:28.838Z,928.9
2017-08-28T02:26:48.243Z,928.9
2017-08-28T02:27:08.263Z,928.87
2017-08-28T02:27:27.710Z,928.94
2017-08-28T02:27:47.113Z,928.92
2017-08-28T02:28:07.104Z,928.9
2017-08-28T02:28:26.539Z,928.88
2017-08-28T02:28:45.954Z,928.86
2017-08-28T02:29:05.945Z,928.87
2017-08-28T02:29:25.954Z,928.87
2017-08-28T02:29:45.973Z,928.85
2017-08-28T02:30:05.935Z,928.85
2017-08-28T02:30:25.360Z,928.84
2017-08-28T02:30:45.329Z,928.84
2017-08-28T02:31:05.319Z,928.85
2017-08-28T02:31:24.730Z,928.85
2017-08-28T02:31:44.711Z,928.86
2017-08-28T02:32:04.693Z,928.89
2017-08-28T02:32:24.111Z,928.89
2017-08-28T02:32:44.096Z,928.87
2017-08-28T02:33:03.543Z,928.83
2017-08-28T02:33:22.380Z,928.88
2017-08-28T02:33:42.382Z,928.84
2017-08-28T02:34:01.817Z,928.83
2017-08-28T02:34:21.815Z,928.84
2017-08-28T02:34:41.798Z,928.83
2017-08-28T02:35:01.770Z,928.82
2017-08-28T02:35:21.192Z,928.81
2017-08-28T02:35:40.594Z,928.86
2017-08-28T02:35:59.994Z,928.81
2017-08-28T02:36:19.404Z,928.86
2017-08-28T02:36:39.375Z,928.85
2017-08-28T02:36:59.376Z,928.85
2017-08-28T02:37:18.806Z,928.84
2017-08-28T02:37:38.811Z,928.84
2017-08-28T02:37:58.790Z,928.85
2017-08-28T02:38:18.218Z,928.83
2017-08-28T02:38:38.189Z,928.84
2017-08-28T02:38:58.151Z,928.86
2017-08-28T02:39:17.022Z,928.82
2017-08-28T02:39:37.014Z,928.83
2017-08-28T02:39:57.016Z,928.82
2017-08-28T02:40:16.442Z,928.86
2017-08-28T02:40:35.301Z,928.86
2017-08-28T02:40:55.328Z,928.83
2017-08-28T02:41:14.766Z,928.83
2017-08-28T02:41:34.747Z,928.79
2017-08-28T02:41:54.727Z,928.81
2017-08-28T02:42:14.693Z,928.76
2017-08-28T02:42:34.683Z,928.77
2017-08-28T02:42:54.677Z,928.8
2017-08-28T02:43:14.097Z,928.78
2017-08-28T02:43:32.386Z,928.77
2017-08-28T02:43:52.360Z,928.79
2017-08-28T02:44:12.342Z,928.78
2017-08-28T02:44:31.777Z,928.74
2017-08-28T02:44:51.753Z,928.76
2017-08-28T02:45:11.776Z,928.78
2017-08-28T02:45:31.216Z,928.75
2017-08-28T02:45:51.186Z,928.77
2017-08-28T02:46:11.161Z,928.78
2017-08-28T02:46:30.007Z,928.71
2017-08-28T02:46:49.424Z,928.74
2017-08-28T02:47:08.860Z,928.75
2017-08-28T02:47:28.288Z,928.75
2017-08-28T02:47:47.696Z,928.77
2017-08-28T02:48:07.698Z,928.77
2017-08-28T02:48:27.114Z,928.74
2017-08-28T02:48:46.525Z,928.79
2017-08-28T02:49:05.910Z,928.79
2017-08-28T02:49:25.892Z,928.8
2017-08-28T02:49:45.870Z,928.77
2017-08-28T02:50:05.860Z,928.81
2017-08-28T02:50:25.870Z,928.8
2017-08-28T02:50:45.290Z,928.78
2017-08-28T02:51:05.274Z,928.75
2017-08-28T02:51:24.714Z,928.76
2017-08-28T02:51:44.697Z,928.75
2017-08-28T02:52:04.677Z,928.76
2017-08-28T02:52:24.073Z,928.75
2017-08-28T02:52:43.472Z,928.75
2017-08-28T02:53:02.884Z,928.78
2017-08-28T02:53:22.853Z,928.78
2017-08-28T02:53:42.863Z,928.75
2017-08-28T02:54:02.871Z,928.75
2017-08-28T02:54:22.825Z,928.75
2017-08-28T02:54:42.794Z,928.74
2017-08-28T02:55:02.769Z,928.73
2017-08-28T02:55:22.781Z,928.73
2017-08-28T02:55:42.786Z,928.71
2017-08-28T02:56:02.785Z,928.73
2017-08-28T02:56:22.291Z,928.73
2017-08-28T02:56:42.275Z,928.71
2017-08-28T02:57:02.295Z,928.75
2017-08-28T02:57:22.261Z,928.7
2017-08-28T02:57:41.144Z,928.7
2017-08-28T02:58:00.540Z,928.72
2017-08-28T02:58:19.953Z,928.71
2017-08-28T02:58:39.929Z,928.73
2017-08-28T02:58:59.347Z,928.71
2017-08-28T02:59:19.318Z,928.72
2017-08-28T02:59:38.740Z,928.7
2017-08-28T02:59:58.729Z,928.74
2017-08-28T03:00:18.147Z,928.74
2017-08-28T03:00:36.975Z,928.72
2017-08-28T03:00:56.371Z,928.74
2017-08-28T03:01:16.358Z,928.78
2017-08-28T03:01:35.773Z,928.76
2017-08-28T03:01:55.191Z,928.76
2017-08-28T03:02:14.606Z,928.73
2017-08-28T03:02:34.015Z,928.78
2017-08-28T03:02:53.416Z,928.73
2017-08-28T03:03:13.407Z,928.76
2017-08-28T03:03:32.815Z,928.74
2017-08-28T03:03:52.800Z,928.74
2017-08-28T03:04:11.649Z,928.71
2017-08-28T03:04:31.624Z,928.7
2017-08-28T03:04:51.043Z,928.72
2017-08-28T03:05:11.050Z,928.69
2017-08-28T03:05:30.480Z,928.73
2017-08-28T03:05:50.468Z,928.7
2017-08-28T03:06:09.883Z,928.7
2017-08-28T03:06:29.866Z,928.73
2017-08-28T03:06:49.281Z,928.71
2017-08-28T03:07:08.719Z,928.72
2017-08-28T03:07:28.129Z,928.7
2017-08-28T03:07:46.968Z,928.71
2017-08-28T03:08:06.941Z,928.7
2017-08-28T03:08:26.907Z,928.68
2017-08-28T03:08:46.353Z,928.71
2017-08-28T03:09:06.336Z,928.71
2017-08-28T03:09:26.316Z,928.68
2017-08-28T03:09:45.745Z,928.66
2017-08-28T03:10:05.160Z,928.73
2017-08-28T03:10:24.603Z,928.7
2017-08-28T03:10:44.002Z,928.71
2017-08-28T03:11:02.837Z,928.71
2017-08-28T03:11:22.807Z,928.7
2017-08-28T03:11:42.773Z,928.7
2017-08-28T03:12:02.194Z,928.69
2017-08-28T03:12:21.627Z,928.7
2017-08-28T03:12:40.482Z,928.71
2017-08-28T03:12:59.887Z,928.66
2017-08-28T03:13:19.876Z,928.67
2017-08-28T03:13:39.871Z,928.65
2017-08-28T03:13:58.718Z,928.64
2017-08-28T03:14:18.693Z,928.63
2017-08-28T03:14:38.660Z,928.64
2017-08-28T03:14:58.639Z,928.62
2017-08-28T03:15:18.610Z,928.65
2017-08-28T03:15:38.028Z,928.61
2017-08-28T03:15:57.438Z,928.61
2017-08-28T03:16:17.425Z,928.6
2017-08-28T03:16:37.396Z,928.59
2017-08-28T03:16:56.840Z,928.59
2017-08-28T03:17:16.833Z,928.6
2017-08-28T03:17:36.805Z,928.62
2017-08-28T03:17:56.222Z,928.55
2017-08-28T03:18:16.201Z,928.57
2017-08-28T03:18:35.614Z,928.56
2017-08-28T03:18:55.629Z,928.56
2017-08-28T03:19:15.595Z,928.55
2017-08-28T03:19:34.473Z,928.55
2017-08-28T03:19:53.890Z,928.54
2017-08-28T03:20:13.874Z,928.57
2017-08-28T03:20:33.281Z,928.49
2017-08-28T03:20:52.138Z,928.55
2017-08-28T03:21:10.976Z,928.53
2017-08-28T03:21:30.947Z,928.51
2017-08-28T03:21:50.945Z,928.58
2017-08-28T03:22:10.366Z,928.52
2017-08-28T03:22:30.355Z,928.55
2017-08-28T03:22:49.756Z,928.52
2017-08-28T03:23:08.621Z,928.53
2017-08-28T03:23:28.622Z,928.5
2017-08-28T03:23:48.611Z,928.49
2017-08-28T03:24:08.584Z,928.49
2017-08-28T03:24:27.999Z,928.48
2017-08-28T03:24:47.996Z,928.56
2017-08-28T03:25:07.410Z,928.53
2017-08-28T03:25:27.387Z,928.47
2017-08-28T03:25:46.807Z,928.47
2017-08-28T03:26:06.804Z,928.49
2017-08-28T03:26:26.787Z,928.45
2017-08-28T03:26:46.213Z,928.47
2017-08-28T03:27:06.178Z,928.47
2017-08-28T03:27:26.185Z,928.45
2017-08-28T03:27:46.146Z,928.45
2017-08-28T03:28:06.147Z,928.48
2017-08-28T03:28:26.136Z,928.47
2017-08-28T03:28:46.143Z,928.47
2017-08-28T03:29:05.521Z,928.46
2017-08-28T03:29:25.498Z,928.45
2017-08-28T03:29:45.517Z,928.47
2017-08-28T03:30:04.915Z,928.45
2017-08-28T03:30:24.905Z,928.49
2017-08-28T03:30:44.897Z,928.45
2017-08-28T03:31:04.896Z,928.48
2017-08-28T03:31:24.319Z,928.42
2017-08-28T03:31:44.280Z,928.44
2017-08-28T03:32:03.116Z,928.44
2017-08-28T03:32:23.110Z,928.41
2017-08-28T03:32:43.094Z,928.44
2017-08-28T03:33:01.931Z,928.43
2017-08-28T03:33:21.342Z,928.46
2017-08-28T03:33:41.318Z,928.39
2017-08-28T03:34:01.334Z,928.41
2017-08-28T03:34:21.321Z,928.4
2017-08-28T03:34:41.295Z,928.38
2017-08-28T03:35:00.698Z,928.38
2017-08-28T03:35:19.539Z,928.4
2017-08-28T03:35:38.938Z,928.38
2017-08-28T03:35:58.921Z,928.42
2017-08-28T03:36:18.325Z,928.42
2017-08-28T03:36:38.308Z,928.4
2017-08-28T03:36:58.287Z,928.36
2017-08-28T03:37:17.698Z,928.39
2017-08-28T03:37:37.689Z,928.32
2017-08-28T03:37:57.103Z,928.39
2017-08-28T03:38:16.503Z,928.39
2017-08-28T03:38:35.931Z,928.35
2017-08-28T03:38:55.338Z,928.37
2017-08-28T03:39:15.303Z,928.37
2017-08-28T03:39:35.308Z,928.34
2017-08-28T03:39:55.302Z,928.37
2017-08-28T03:40:14.149Z,928.37
2017-08-28T03:40:33.563Z,928.36
2017-08-28T03:40:53.546Z,928.35
2017-08-28T03:41:12.967Z,928.34
2017-08-28T03:41:32.934Z,928.36
2017-08-28T03:41:52.918Z,928.37
2017-08-28T03:42:11.755Z,928.38
2017-08-28T03:42:31.728Z,928.37
2017-08-28T03:42:51.703Z,928.4
2017-08-28T03:43:11.097Z,928.37
2017-08-28T03:43:30.505Z,928.37
2017-08-28T03:43:50.491Z,928.38
2017-08-28T03:44:09.890Z,928.38
2017-08-28T03:44:29.898Z,928.36
2017-08-28T03:44:49.900Z,928.37
2017-08-28T03:45:09.329Z,928.35
2017-08-28T03:45:29.320Z,928.34
2017-08-28T03:45:49.284Z,928.39
2017-08-28T03:46:09.241Z,928.39
2017-08-28T03:46:29.234Z,928.4
2017-08-28T03:46:49.218Z,928.37
2017-08-28T03:47:08.638Z,928.32
2017-08-28T03:47:28.042Z,928.36
2017-08-28T03:47:48.040Z,928.32
2017-08-28T03:48:07.473Z,928.35
2017-08-28T03:48:26.894Z,928.34
2017-08-28T03:48:46.877Z,928.35
2017-08-28T03:49:06.850Z,928.39
2017-08-28T03:49:26.854Z,928.37
2017-08-28T03:49:46.829Z,928.38
2017-08-28T03:50:06.256Z,928.4
2017-08-28T03:50:25.110Z,928.35
2017-08-28T03:50:44.521Z,928.35
2017-08-28T03:51:04.518Z,928.33
2017-08-28T03:51:23.909Z,928.35
2017-08-28T03:51:43.898Z,928.32
2017-08-28T03:52:03.873Z,928.34
2017-08-28T03:52:23.860Z,928.32
2017-08-28T03:52:43.298Z,928.31
2017-08-28T03:53:03.280Z,928.32
2017-08-28T03:53:22.722Z,928.33
2017-08-28T03:53:42.698Z,928.31
2017-08-28T03:54:02.120Z,928.32
2017-08-28T03:54:21.512Z,928.34
2017-08-28T03:54:41.513Z,928.29
2017-08-28T03:55:00.922Z,928.31
2017-08-28T03:55:20.868Z,928.28
2017-08-28T03:55:40.271Z,928.28
2017-08-28T03:56:00.249Z,928.27
2017-08-28T03:56:20.223Z,928.3
2017-08-28T03:56:40.191Z,928.25
2017-08-28T03:57:00.160Z,928.31
2017-08-28T03:57:19.542Z,928.3
2017-08-28T03:57:38.964Z,928.27
2017-08-28T03:57:58.980Z,928.27
2017-08-28T03:58:18.397Z,928.28
2017-08-28T03:58:38.388Z,928.3
2017-08-28T03:58:58.413Z,928.3
2017-08-28T03:59:18.445Z,928.33
2017-08-28T03:59:38.415Z,928.3
2017-08-28T03:59:57.826Z,928.33
2017-08-28T04:00:17.923Z,928.32
2017-08-28T04:00:37.890Z,928.35
2017-08-28T04:00:57.547Z,928.33
2017-08-28T04:01:17.063Z,928.35
2017-08-28T04:01:36.673Z,928.31
2017-08-28T04:01:56.730Z,928.33
2017-08-28T04:02:16.705Z,928.32
2017-08-28T04:02:36.680Z,928.33
2017-08-28T04:02:56.092Z,928.33
2017-08-28T04:03:16.074Z,928.29
2017-08-28T04:03:36.032Z,928.31
2017-08-28T04:03:55.994Z,928.31
2017-08-28T04:04:16.016Z,928.28
2017-08-28T04:04:35.426Z,928.27
2017-08-28T04:04:55.424Z,928.26
2017-08-28T04:05:15.401Z,928.25
2017-08-28T04:05:34.816Z,928.28
2017-08-28T04:05:54.224Z,928.29
2017-08-28T04:06:14.197Z,928.26
2017-08-28T04:06:33.038Z,928.28
2017-08-28T04:06:52.994Z,928.28
2017-08-28T04:07:12.965Z,928.29
2017-08-28T04:07:31.806Z,928.29